createdAt,value
2017-10-07T00:02:27.230Z,99.90
2017-10-07T00:04:55.022Z,99.90
2017-10-07T00:07:22.541Z,99.90
2017-10-07T00:09:50.215Z,99.90
2017-10-07T00:12:18.311Z,99.90
2017-10-07T00:14:45.866Z,99.90
2017-10-07T00:17:13.391Z,99.90
2017-10-07T00:19:40.939Z,99.90
2017-10-07T00:22:08.453Z,99.90
2017-10-07T00:24:35.978Z,99.90
2017-10-07T00:27:03.829Z,99.90
2017-10-07T00:29:31.551Z,99.90
2017-10-07T00:31:59.790Z,99.90
2017-10-07T00:34:27.759Z,99.90
2017-10-07T00:36:55.455Z,99.90
2017-10-07T00:39:23.117Z,99.90
2017-10-07T00:41:50.697Z,99.90
2017-10-07T00:44:18.352Z,99.90
2017-10-07T00:46:45.941Z,99.90
2017-10-07T00:49:13.905Z,99.90
2017-10-07T00:51:41.546Z,99.90
2017-10-07T00:54:09.334Z,99.90
2017-10-07T00:56:37.073Z,99.90
2017-10-07T00:59:04.640Z,99.90
2017-10-07T01:01:32.978Z,99.90
2017-10-07T01:04:01.834Z,99.90
2017-10-07T01:06:29.484Z,99.90
2017-10-07T01:08:57.775Z,99.90
2017-10-07T01:11:25.346Z,99.90
2017-10-07T01:13:52.891Z,99.90
2017-10-07T01:16:20.910Z,99.90
2017-10-07T01:18:48.780Z,99.90
2017-10-07T01:21:16.307Z,99.90
2017-10-07T01:23:43.818Z,99.90
2017-10-07T01:26:11.746Z,99.90
2017-10-07T01:28:39.459Z,99.90
2017-10-07T01:31:07.734Z,99.90
2017-10-07T01:33:36.475Z,99.90
2017-10-07T01:36:04.027Z,99.90
2017-10-07T01:38:31.562Z,99.90
2017-10-07T01:40:59.484Z,99.90
2017-10-07T01:43:27.025Z,99.90
2017-10-07T01:45:54.544Z,99.90
2017-10-07T01:48:22.442Z,99.90
2017-10-07T01:50:49.955Z,99.90
2017-10-07T01:53:17.506Z,99.90
2017-10-07T01:55:45.844Z,99.90
2017-10-07T01:58:13.347Z,99.90
2017-10-07T02:00:40.882Z,99.90
2017-10-07T02:03:08.727Z,99.90
2017-10-07T02:05:36.288Z,99.90
2017-10-07T02:08:04.240Z,99.90
2017-10-07T02:10:32.175Z,99.90
2017-10-07T02:13:00.883Z,99.90
2017-10-07T02:15:28.436Z,99.90
2017-10-07T02:17:56.443Z,99.90
2017-10-07T02:20:23.970Z,99.90
2017-10-07T02:22:51.479Z,99.90
2017-10-07T02:25:19.180Z,99.90
2017-10-07T02:27:46.687Z,99.90
2017-10-07T02:30:14.194Z,99.90
2017-10-07T02:32:41.814Z,99.90
2017-10-07T02:35:09.372Z,99.90
2017-10-07T02:37:36.939Z,99.90
2017-10-07T02:40:04.797Z,99.90
2017-10-07T02:42:32.349Z,99.90
2017-10-07T02:44:59.865Z,99.90
2017-10-07T02:47:28.111Z,99.90
2017-10-07T02:49:55.651Z,99.90
2017-10-07T02:52:23.234Z,99.90
2017-10-07T02:54:51.137Z,99.90
2017-10-07T02:57:19.147Z,99.90
2017-10-07T02:59:46.691Z,99.90
2017-10-07T03:02:14.611Z,99.90
2017-10-07T03:04:42.226Z,99.90
2017-10-07T03:07:09.750Z,99.90
2017-10-07T03:09:37.587Z,99.90
2017-10-07T03:12:05.208Z,99.90
2017-10-07T03:14:32.821Z,99.90
2017-10-07T03:17:01.427Z,99.90
2017-10-07T03:19:29.024Z,99.90
2017-10-07T03:21:57.361Z,99.90
2017-10-07T03:24:25.735Z,99.90
2017-10-07T03:26:54.003Z,99.90
2017-10-07T03:29:22.277Z,99.90
2017-10-07T03:31:50.599Z,99.90
2017-10-07T03:34:18.233Z,99.90
2017-10-07T03:36:46.125Z,99.90
2017-10-07T03:39:13.979Z,99.90
2017-10-07T03:41:42.095Z,99.90
2017-10-07T03:44:09.723Z,99.90
2017-10-07T03:46:37.710Z,99.90
2017-10-07T03:49:05.258Z,99.90
2017-10-07T03:51:32.801Z,99.90
2017-10-07T03:54:00.648Z,99.90
2017-10-07T03:56:28.934Z,99.90
2017-10-07T03:58:56.518Z,99.90
2017-10-07T04:01:24.420Z,99.90
2017-10-07T04:03:51.962Z,99.90
2017-10-07T04:06:19.498Z,99.90
2017-10-07T04:08:47.299Z,99.90
2017-10-07T04:11:14.824Z,99.90
2017-10-07T04:13:42.423Z,99.90
2017-10-07T04:16:10.335Z,99.90
2017-10-07T04:18:37.851Z,99.90
2017-10-07T04:21:05.379Z,99.90
2017-10-07T04:23:32.950Z,99.90
2017-10-07T04:26:00.549Z,99.90
2017-10-07T04:28:28.074Z,99.90
2017-10-07T04:30:55.764Z,99.90
2017-10-07T04:33:23.411Z,99.90
2017-10-07T04:35:50.985Z,99.90
2017-10-07T04:38:18.858Z,99.90
2017-10-07T04:40:46.411Z,99.90
2017-10-07T04:43:13.967Z,99.90
2017-10-07T04:45:41.551Z,99.90
2017-10-07T04:48:09.110Z,99.90
2017-10-07T04:50:36.626Z,99.90
2017-10-07T04:53:04.428Z,99.90
2017-10-07T04:55:32.702Z,99.90
2017-10-07T04:58:00.984Z,99.90
2017-10-07T05:00:29.658Z,99.90
2017-10-07T05:02:57.947Z,99.90
2017-10-07T05:05:26.230Z,99.90
2017-10-07T05:07:54.857Z,99.90
2017-10-07T05:10:22.373Z,99.90
2017-10-07T05:12:50.702Z,99.90
2017-10-07T05:15:18.560Z,99.90
2017-10-07T05:17:46.182Z,99.90
2017-10-07T05:20:14.451Z,99.90
2017-10-07T05:22:43.043Z,99.90
2017-10-07T05:25:10.644Z,99.90
2017-10-07T05:27:38.207Z,99.90
2017-10-07T05:30:06.048Z,99.90
2017-10-07T05:32:33.630Z,99.90
2017-10-07T05:35:01.143Z,99.90
2017-10-07T05:37:28.719Z,99.90
2017-10-07T05:39:56.335Z,99.90
2017-10-07T05:42:23.878Z,99.90
2017-10-07T05:44:51.487Z,99.90
2017-10-07T05:47:19.766Z,99.90
2017-10-07T05:49:48.034Z,99.90
2017-10-07T05:52:16.367Z,99.90
2017-10-07T05:54:43.909Z,99.90
2017-10-07T05:57:11.527Z,99.90
2017-10-07T05:59:39.555Z,99.90
2017-10-07T06:02:07.066Z,99.90
2017-10-07T06:04:34.648Z,99.90
2017-10-07T06:07:02.653Z,99.90
2017-10-07T06:09:30.159Z,99.90
2017-10-07T06:11:58.435Z,99.90
2017-10-07T06:14:27.008Z,99.90
2017-10-07T06:16:55.397Z,99.90
2017-10-07T06:19:23.750Z,99.90
2017-10-07T06:21:51.250Z,99.90
2017-10-07T06:24:19.319Z,99.90
2017-10-07T06:26:46.907Z,99.90
2017-10-07T06:29:14.447Z,99.90
2017-10-07T06:31:42.057Z,99.90
2017-10-07T06:34:10.467Z,99.90
2017-10-07T06:36:38.743Z,99.90
2017-10-07T06:39:07.833Z,99.90
2017-10-07T06:41:36.157Z,99.90
2017-10-07T06:44:03.684Z,99.90
2017-10-07T06:46:31.611Z,99.90
2017-10-07T06:48:59.134Z,99.90
2017-10-07T06:51:26.660Z,99.90
2017-10-07T06:53:54.875Z,99.90
2017-10-07T06:56:22.407Z,99.90
2017-10-07T06:58:49.959Z,99.90
2017-10-07T07:01:18.627Z,99.90
2017-10-07T07:03:46.535Z,99.90
2017-10-07T07:06:14.064Z,99.90
2017-10-07T07:08:41.680Z,99.90
2017-10-07T07:11:09.489Z,99.90
2017-10-07T07:13:37.786Z,99.90
2017-10-07T07:16:05.319Z,99.90
2017-10-07T07:18:33.394Z,99.90
2017-10-07T07:21:01.458Z,99.90
2017-10-07T07:23:28.991Z,99.90
2017-10-07T07:25:56.615Z,99.90
2017-10-07T07:28:24.191Z,99.90
2017-10-07T07:30:51.824Z,99.90
2017-10-07T07:33:20.126Z,99.90
2017-10-07T07:35:47.646Z,99.90
2017-10-07T07:38:15.224Z,99.90
2017-10-07T07:40:43.168Z,99.90
2017-10-07T07:43:10.758Z,99.90
2017-10-07T07:45:38.332Z,99.90
2017-10-07T07:48:06.184Z,99.90
2017-10-07T07:50:33.697Z,99.90
2017-10-07T07:53:01.211Z,99.90
2017-10-07T07:55:28.870Z,99.90
2017-10-07T07:57:56.438Z,99.90
2017-10-07T08:00:23.967Z,99.90
2017-10-07T08:02:53.071Z,99.90
2017-10-07T08:05:21.382Z,99.90
2017-10-07T08:07:49.005Z,99.90
2017-10-07T08:10:17.603Z,99.90
2017-10-07T08:12:46.039Z,99.90
2017-10-07T08:15:13.582Z,99.90
2017-10-07T08:17:41.530Z,99.90
2017-10-07T08:20:09.033Z,99.90
2017-10-07T08:22:37.348Z,99.90
2017-10-07T08:25:04.915Z,99.90
2017-10-07T08:27:33.396Z,99.90
2017-10-07T08:30:00.979Z,99.90
2017-10-07T08:32:28.520Z,99.90
2017-10-07T08:34:56.759Z,99.90
2017-10-07T08:37:25.051Z,99.90
2017-10-07T08:39:53.355Z,99.90
2017-10-07T08:42:20.947Z,99.90
2017-10-07T08:44:48.532Z,99.90
2017-10-07T08:47:16.104Z,99.90
2017-10-07T08:49:44.470Z,99.90
2017-10-07T08:52:12.000Z,99.90
2017-10-07T08:54:39.543Z,99.90
2017-10-07T08:57:07.415Z,99.90
2017-10-07T08:59:35.025Z,99.90
2017-10-07T09:02:03.380Z,99.90
2017-10-07T09:04:31.338Z,99.90
2017-10-07T09:06:59.038Z,99.90
2017-10-07T09:09:27.360Z,99.90
2017-10-07T09:11:54.963Z,99.90
2017-10-07T09:14:22.483Z,99.90
2017-10-07T09:16:50.068Z,99.90
2017-10-07T09:19:18.695Z,99.90
2017-10-07T09:21:46.262Z,99.90
2017-10-07T09:24:13.785Z,99.90
2017-10-07T09:26:41.802Z,99.90
2017-10-07T09:29:09.396Z,99.90
2017-10-07T09:31:36.914Z,99.90
2017-10-07T09:34:04.507Z,98.80
2017-10-07T09:36:32.043Z,99.90
2017-10-07T09:39:00.011Z,98.30
2017-10-07T09:41:27.713Z,96.30
2017-10-07T09:43:56.006Z,97.00
2017-10-07T09:46:24.311Z,96.00
2017-10-07T09:48:52.120Z,95.90
2017-10-07T09:51:19.679Z,96.00
2017-10-07T09:53:47.184Z,98.00
2017-10-07T09:56:14.763Z,98.40
2017-10-07T09:58:42.975Z,98.90
2017-10-07T10:01:10.567Z,98.10
2017-10-07T10:03:38.434Z,98.10
2017-10-07T10:06:05.988Z,98.10
2017-10-07T10:08:33.491Z,99.20
2017-10-07T10:11:01.277Z,99.90
2017-10-07T10:13:28.837Z,98.40
2017-10-07T10:15:56.396Z,96.90
2017-10-07T10:18:25.316Z,95.10
2017-10-07T10:20:53.037Z,94.50
2017-10-07T10:23:20.551Z,95.00
2017-10-07T10:25:48.347Z,95.90
2017-10-07T10:28:15.875Z,97.00
2017-10-07T10:30:43.401Z,96.70
2017-10-07T10:33:11.345Z,98.00
2017-10-07T10:35:38.863Z,96.80
2017-10-07T10:38:12.818Z,94.40
2017-10-07T10:40:40.325Z,94.10
2017-10-07T10:43:07.875Z,93.80
2017-10-07T10:45:35.452Z,94.30
2017-10-07T10:48:08.592Z,93.60
2017-10-07T10:50:36.378Z,94.50
2017-10-07T10:53:03.928Z,95.50
2017-10-07T10:55:31.493Z,95.10
2017-10-07T10:57:59.082Z,95.30
2017-10-07T11:00:26.637Z,96.40
2017-10-07T11:02:54.155Z,97.90
2017-10-07T11:05:21.974Z,97.60
2017-10-07T11:07:50.485Z,93.50
2017-10-07T11:10:18.039Z,93.50
2017-10-07T11:12:45.655Z,92.20
2017-10-07T11:15:13.242Z,91.50
2017-10-07T11:17:41.788Z,88.60
2017-10-07T11:20:10.098Z,88.20
2017-10-07T11:22:37.746Z,85.40
2017-10-07T11:25:05.266Z,90.60
2017-10-07T11:27:32.835Z,89.70
2017-10-07T11:30:00.369Z,89.10
2017-10-07T11:32:27.960Z,85.60
2017-10-07T11:34:55.796Z,83.70
2017-10-07T11:37:23.322Z,81.40
2017-10-07T11:39:50.949Z,80.90
2017-10-07T11:42:18.950Z,83.10
2017-10-07T11:44:46.498Z,81.70
2017-10-07T11:47:14.007Z,81.90
2017-10-07T11:49:41.818Z,80.70
2017-10-07T11:52:09.350Z,83.50
2017-10-07T11:54:36.887Z,81.10
2017-10-07T11:57:04.719Z,84.50
2017-10-07T11:59:33.030Z,81.70
2017-10-07T12:02:00.559Z,81.60
2017-10-07T12:04:28.356Z,82.00
2017-10-07T12:06:55.898Z,85.50
2017-10-07T12:09:23.506Z,85.00
2017-10-07T12:11:51.678Z,84.60
2017-10-07T12:14:19.306Z,87.70
2017-10-07T12:16:46.843Z,83.50
2017-10-07T12:19:15.426Z,81.80
2017-10-07T12:21:43.000Z,81.50
2017-10-07T12:24:10.512Z,81.20
2017-10-07T12:26:38.510Z,83.00
2017-10-07T12:29:06.939Z,87.60
2017-10-07T12:31:34.767Z,87.70
2017-10-07T12:34:03.341Z,88.60
2017-10-07T12:36:31.626Z,87.20
2017-10-07T12:38:59.964Z,90.00
2017-10-07T12:41:27.956Z,90.00
2017-10-07T12:43:55.503Z,88.40
2017-10-07T12:46:23.123Z,88.70
2017-10-07T12:48:51.069Z,88.90
2017-10-07T12:51:18.595Z,86.20
2017-10-07T12:53:46.345Z,84.10
2017-10-07T12:56:14.231Z,85.40
2017-10-07T12:58:42.529Z,88.70
2017-10-07T13:01:10.026Z,88.50
2017-10-07T13:03:38.215Z,89.30
2017-10-07T13:06:05.734Z,88.50
2017-10-07T13:08:33.243Z,90.90
2017-10-07T13:11:01.131Z,89.80
2017-10-07T13:13:28.981Z,90.70
2017-10-07T13:15:56.498Z,90.10
2017-10-07T13:18:24.167Z,90.80
2017-10-07T13:20:51.706Z,91.00
2017-10-07T13:23:19.287Z,91.70
2017-10-07T13:25:46.842Z,91.70
2017-10-07T13:28:14.426Z,91.90
2017-10-07T13:30:41.941Z,90.80
2017-10-07T13:33:09.788Z,91.90
2017-10-07T13:35:37.347Z,91.40
2017-10-07T13:38:04.894Z,91.40
2017-10-07T13:40:32.643Z,92.70
2017-10-07T13:43:00.374Z,91.70
2017-10-07T13:45:28.127Z,91.20
2017-10-07T13:48:02.381Z,92.00
2017-10-07T13:50:29.927Z,92.10
2017-10-07T13:52:57.655Z,92.20
2017-10-07T13:55:25.727Z,92.00
2017-10-07T13:57:53.298Z,91.00
2017-10-07T14:00:20.999Z,90.90
2017-10-07T14:02:48.835Z,91.50
2017-10-07T14:05:16.363Z,91.50
2017-10-07T14:07:44.075Z,92.40
2017-10-07T14:10:11.968Z,92.20
2017-10-07T14:12:39.489Z,92.80
2017-10-07T14:15:07.108Z,92.60
2017-10-07T14:17:35.066Z,93.00
2017-10-07T14:20:02.582Z,93.40
2017-10-07T14:22:30.146Z,94.30
2017-10-07T14:24:57.801Z,94.10
2017-10-07T14:27:25.327Z,93.40
2017-10-07T14:29:52.864Z,93.80
2017-10-07T14:32:20.794Z,94.10
2017-10-07T14:34:48.470Z,93.90
2017-10-07T14:37:15.990Z,92.80
2017-10-07T14:39:44.234Z,93.20
2017-10-07T14:42:11.741Z,93.50
2017-10-07T14:44:39.306Z,94.00
2017-10-07T14:47:07.351Z,95.30
2017-10-07T14:49:35.743Z,95.40
2017-10-07T14:52:03.270Z,95.40
2017-10-07T14:54:31.099Z,95.00
2017-10-07T14:56:58.608Z,95.60
2017-10-07T14:59:27.514Z,95.30
2017-10-07T15:01:55.467Z,95.20
2017-10-07T15:04:23.055Z,96.00
2017-10-07T15:06:50.606Z,96.90
2017-10-07T15:09:18.367Z,96.10
2017-10-07T15:11:45.899Z,95.90
2017-10-07T15:14:13.575Z,96.70
2017-10-07T15:16:41.492Z,96.90
2017-10-07T15:19:09.020Z,96.90
2017-10-07T15:21:36.663Z,96.80
2017-10-07T15:24:05.431Z,98.70
2017-10-07T15:26:32.944Z,98.80
2017-10-07T15:29:00.700Z,97.50
2017-10-07T15:31:28.668Z,99.30
2017-10-07T15:33:56.372Z,98.30
2017-10-07T15:36:23.887Z,98.50
2017-10-07T15:38:51.854Z,99.00
2017-10-07T15:41:19.379Z,98.60
2017-10-07T15:46:21.142Z,99.60
2017-10-07T15:48:48.828Z,99.40
2017-10-07T15:51:16.386Z,99.50
2017-10-07T15:53:44.835Z,99.90
2017-10-07T15:56:12.387Z,99.90
2017-10-07T15:58:40.044Z,99.90
2017-10-07T16:01:07.959Z,99.90
2017-10-07T16:03:36.272Z,99.90
2017-10-07T16:06:03.779Z,99.90
2017-10-07T16:08:31.418Z,99.90
2017-10-07T16:10:59.248Z,99.90
2017-10-07T16:13:27.282Z,99.90
2017-10-07T16:15:54.824Z,99.90
2017-10-07T16:18:22.346Z,99.90
2017-10-07T16:20:50.184Z,99.90
2017-10-07T16:23:18.708Z,99.90
2017-10-07T16:25:46.272Z,99.90
2017-10-07T16:28:13.787Z,99.90
2017-10-07T16:30:42.074Z,99.90
2017-10-07T16:33:09.925Z,99.90
2017-10-07T16:35:38.207Z,99.90
2017-10-07T16:38:06.487Z,99.90
2017-10-07T16:40:35.260Z,99.90
2017-10-07T16:43:02.803Z,99.90
2017-10-07T16:45:30.466Z,99.90
2017-10-07T16:47:58.050Z,99.90
2017-10-07T16:50:25.576Z,99.90
2017-10-07T16:52:53.165Z,99.90
2017-10-07T16:55:21.258Z,99.90
2017-10-07T16:57:48.791Z,99.90
2017-10-07T17:00:16.330Z,99.90
2017-10-07T17:02:43.931Z,99.90
2017-10-07T17:05:11.454Z,99.90
2017-10-07T17:07:39.141Z,99.90
2017-10-07T17:10:07.139Z,99.90
2017-10-07T17:12:34.815Z,99.90
2017-10-07T17:15:02.350Z,99.90
2017-10-07T17:17:30.183Z,99.90
2017-10-07T17:19:57.703Z,99.90
2017-10-07T17:22:25.226Z,99.90
2017-10-07T17:24:53.898Z,99.90
2017-10-07T17:27:22.214Z,99.90
2017-10-07T17:29:49.754Z,99.90
2017-10-07T17:32:17.419Z,99.90
2017-10-07T17:34:44.940Z,99.90
2017-10-07T17:37:12.453Z,99.90
2017-10-07T17:39:40.003Z,99.90
2017-10-07T17:42:07.578Z,99.90
2017-10-07T17:44:35.112Z,99.90
2017-10-07T17:47:03.119Z,99.90
2017-10-07T17:49:30.657Z,99.90
2017-10-07T17:51:58.351Z,99.90
2017-10-07T17:54:26.579Z,99.90
2017-10-07T17:56:54.081Z,99.90
2017-10-07T17:59:22.323Z,99.90
2017-10-07T18:01:50.152Z,99.90
2017-10-07T18:04:17.728Z,99.90
2017-10-07T18:06:46.085Z,99.90
2017-10-07T18:09:14.399Z,99.90
2017-10-07T18:11:42.681Z,99.90
2017-10-07T18:14:10.339Z,99.90
2017-10-07T18:16:38.347Z,99.90
2017-10-07T18:19:05.860Z,99.90
2017-10-07T18:21:33.508Z,99.90
2017-10-07T18:24:01.071Z,99.90
2017-10-07T18:26:29.611Z,99.90
2017-10-07T18:28:57.147Z,99.90
2017-10-07T18:31:24.883Z,99.90
2017-10-07T18:33:53.287Z,99.90
2017-10-07T18:36:20.795Z,99.90
2017-10-07T18:38:48.437Z,99.90
2017-10-07T18:41:15.991Z,99.90
2017-10-07T18:43:43.515Z,99.90
2017-10-07T18:46:11.618Z,99.90
2017-10-07T18:48:39.130Z,99.90
2017-10-07T18:51:07.465Z,99.90
2017-10-07T18:53:35.394Z,99.90
2017-10-07T18:56:02.910Z,99.90
2017-10-07T18:58:30.619Z,99.90
2017-10-07T19:00:58.319Z,99.90
2017-10-07T19:03:26.124Z,99.90
2017-10-07T19:05:54.629Z,99.90
2017-10-07T19:08:22.576Z,99.90
2017-10-07T19:10:50.175Z,99.90
2017-10-07T19:13:17.874Z,99.90
2017-10-07T19:15:45.773Z,99.90
2017-10-07T19:18:13.416Z,99.90
2017-10-07T19:20:40.963Z,99.90
2017-10-07T19:23:08.918Z,99.90
2017-10-07T19:25:36.470Z,99.90
2017-10-07T19:28:03.986Z,99.90
2017-10-07T19:30:32.568Z,99.90
2017-10-07T19:33:00.206Z,99.90
2017-10-07T19:35:27.714Z,99.90
2017-10-07T19:37:55.654Z,99.90
2017-10-07T19:40:23.287Z,99.90
2017-10-07T19:42:51.062Z,99.90
2017-10-07T19:45:18.623Z,99.90
2017-10-07T19:47:46.182Z,99.90
2017-10-07T19:50:13.755Z,99.90
2017-10-07T19:52:42.540Z,99.90
2017-10-07T19:55:10.091Z,99.90
2017-10-07T19:57:38.410Z,99.90
2017-10-07T20:00:06.279Z,99.90
2017-10-07T20:02:33.903Z,99.90
2017-10-07T20:05:02.250Z,99.90
2017-10-07T20:07:30.091Z,99.90
2017-10-07T20:09:57.607Z,99.90
2017-10-07T20:12:25.171Z,99.90
2017-10-07T20:14:53.520Z,99.90
2017-10-07T20:17:21.140Z,99.90
2017-10-07T20:19:48.664Z,99.90
2017-10-07T20:22:17.529Z,99.90
2017-10-07T20:24:45.175Z,99.90
2017-10-07T20:27:12.765Z,99.90
2017-10-07T20:29:40.614Z,99.90
2017-10-07T20:32:08.134Z,99.90
2017-10-07T20:34:35.652Z,99.90
2017-10-07T20:37:03.647Z,99.90
2017-10-07T20:39:31.244Z,99.90
2017-10-07T20:41:58.822Z,99.90
2017-10-07T20:44:26.791Z,99.90
2017-10-07T20:46:54.354Z,99.90
2017-10-07T20:49:22.279Z,99.90
2017-10-07T20:51:50.102Z,99.90
2017-10-07T20:54:17.667Z,99.90
2017-10-07T20:56:45.231Z,99.90
2017-10-07T20:59:13.363Z,99.90
2017-10-07T21:01:40.923Z,99.90
2017-10-07T21:04:08.464Z,99.90
2017-10-07T21:06:36.405Z,99.90
2017-10-07T21:09:04.063Z,99.90
2017-10-07T21:11:31.611Z,99.90
2017-10-07T21:13:59.294Z,99.90
2017-10-07T21:16:26.955Z,99.90
2017-10-07T21:18:54.518Z,99.90
2017-10-07T21:21:22.875Z,99.90
2017-10-07T21:23:50.900Z,99.90
2017-10-07T21:26:18.479Z,99.90
2017-10-07T21:28:47.439Z,99.90
2017-10-07T21:31:15.112Z,99.90
2017-10-07T21:33:42.620Z,99.90
2017-10-07T21:36:10.774Z,99.90
2017-10-07T21:38:38.500Z,99.90
2017-10-07T21:41:06.025Z,99.90
2017-10-07T21:43:33.960Z,99.90
2017-10-07T21:46:01.678Z,99.90
2017-10-07T21:48:29.197Z,99.90
2017-10-07T21:50:57.101Z,99.90
2017-10-07T21:53:24.760Z,99.90
2017-10-07T21:55:52.351Z,99.90
2017-10-07T21:58:20.243Z,99.90
2017-10-07T22:00:47.830Z,99.90
2017-10-07T22:03:15.446Z,99.90
2017-10-07T22:05:43.304Z,99.90
2017-10-07T22:08:10.897Z,99.90
2017-10-07T22:10:38.447Z,99.90
2017-10-07T22:13:06.327Z,99.90
2017-10-07T22:15:33.855Z,99.90
2017-10-07T22:18:02.171Z,99.90
2017-10-07T22:20:30.554Z,99.90
2017-10-07T22:22:59.035Z,99.90
2017-10-07T22:25:26.656Z,99.90
2017-10-07T22:27:54.598Z,99.90
2017-10-07T22:30:22.265Z,99.90
2017-10-07T22:32:49.795Z,99.90
2017-10-07T22:35:17.610Z,99.90
2017-10-07T22:37:45.246Z,99.90
2017-10-07T22:40:13.146Z,99.90
2017-10-07T22:42:41.156Z,99.90
2017-10-07T22:45:08.668Z,99.90
2017-10-07T22:47:36.419Z,99.90
2017-10-07T22:50:04.584Z,99.90
2017-10-07T22:52:32.128Z,99.90
2017-10-07T22:54:59.703Z,99.90
2017-10-07T22:57:27.543Z,99.90
2017-10-07T22:59:55.826Z,99.90
2017-10-07T23:02:24.104Z,99.90
2017-10-07T23:04:52.552Z,99.90
2017-10-07T23:07:21.676Z,99.90
2017-10-07T23:09:49.303Z,99.90
2017-10-07T23:12:16.882Z,99.90
2017-10-07T23:14:44.671Z,99.90
2017-10-07T23:17:13.004Z,99.90
2017-10-07T23:19:41.019Z,99.90
2017-10-07T23:22:09.377Z,99.90
2017-10-07T23:24:37.026Z,99.90
2017-10-07T23:27:05.216Z,99.90
2017-10-07T23:29:32.751Z,99.90
2017-10-07T23:32:00.275Z,99.90
2017-10-07T23:34:27.891Z,99.90
2017-10-07T23:36:55.603Z,99.90
2017-10-07T23:39:23.352Z,99.90
2017-10-07T23:41:51.673Z,99.90
2017-10-07T23:44:19.300Z,99.90
2017-10-07T23:46:46.791Z,99.90
2017-10-07T23:49:14.687Z,99.90
2017-10-07T23:51:42.217Z,99.90
2017-10-07T23:54:09.733Z,99.90
2017-10-07T23:56:37.819Z,99.90
2017-10-07T23:59:05.495Z,99.90
